createdAt,value
2022-12-25T00:01:32.570Z,7.61
2022-12-25T00:03:59.856Z,7.50
2022-12-25T00:06:27.659Z,7.31
2022-12-25T00:08:54.989Z,7.46
2022-12-25T00:11:22.568Z,7.46
2022-12-25T00:13:52.108Z,7.42
2022-12-25T00:16:25.597Z,7.49
2022-12-25T00:18:54.242Z,7.54
2022-12-25T00:21:22.317Z,7.58
2022-12-25T00:23:54.854Z,7.60
2022-12-25T00:26:22.608Z,7.63
2022-12-25T00:29:01.304Z,7.82
2022-12-25T00:31:28.944Z,7.92
2022-12-25T00:33:57.528Z,7.91
2022-12-25T00:36:24.944Z,7.92
2022-12-25T00:38:52.680Z,7.95
2022-12-25T00:41:50.053Z,7.97
2022-12-25T00:44:17.495Z,7.95
2022-12-25T00:46:45.791Z,7.95
2022-12-25T00:49:13.961Z,7.92
2022-12-25T00:51:41.585Z,7.96
2022-12-25T00:54:09.532Z,7.95
2022-12-25T00:56:36.825Z,7.99
2022-12-25T00:59:04.485Z,7.99
2022-12-25T01:01:33.201Z,7.98
2022-12-25T01:04:01.099Z,7.88
2022-12-25T01:06:29.095Z,8.01
2022-12-25T01:09:15.377Z,7.98
2022-12-25T01:11:42.625Z,7.97
2022-12-25T01:14:10.844Z,7.94
2022-12-25T01:16:38.716Z,8.03
2022-12-25T01:19:06.172Z,7.93
2022-12-25T01:21:33.745Z,8.10
2022-12-25T01:24:01.035Z,7.94
2022-12-25T01:26:29.082Z,7.98
2022-12-25T01:28:56.694Z,7.96
2022-12-25T01:31:25.197Z,7.92
2022-12-25T01:33:53.315Z,8.00
2022-12-25T01:36:23.543Z,7.97
2022-12-25T01:38:51.864Z,7.93
2022-12-25T01:41:21.269Z,8.11
2022-12-25T01:44:12.840Z,8.16
2022-12-25T01:46:40.601Z,8.13
2022-12-25T01:49:16.341Z,8.13
2022-12-25T01:51:57.243Z,8.11
2022-12-25T01:54:30.135Z,8.02
2022-12-25T01:57:01.417Z,8.03
2022-12-25T01:59:30.129Z,8.06
2022-12-25T02:01:58.525Z,8.03
2022-12-25T02:04:39.316Z,8.04
2022-12-25T02:07:23.316Z,8.02
2022-12-25T02:09:51.757Z,7.96
2022-12-25T02:12:23.605Z,7.99
2022-12-25T02:14:55.386Z,7.92
2022-12-25T02:18:06.612Z,7.92
2022-12-25T02:20:41.992Z,7.92
2022-12-25T02:23:39.864Z,7.89
2022-12-25T02:26:33.839Z,7.87
2022-12-25T02:29:17.835Z,7.83
2022-12-25T02:32:02.871Z,7.78
2022-12-25T02:34:44.878Z,7.79
2022-12-25T02:37:18.351Z,7.80
2022-12-25T02:40:04.831Z,7.62
2022-12-25T02:43:22.739Z,7.77
2022-12-25T02:46:18.800Z,7.69
2022-12-25T02:49:26.583Z,7.66
2022-12-25T02:52:18.800Z,7.67
2022-12-25T02:55:12.614Z,7.72
2022-12-25T02:58:07.630Z,7.69
2022-12-25T03:00:58.362Z,7.70
2022-12-25T03:03:49.826Z,7.67
2022-12-25T03:06:39.114Z,7.65
2022-12-25T03:09:28.542Z,7.65
2022-12-25T03:12:09.051Z,7.71
2022-12-25T03:14:58.165Z,7.68
2022-12-25T03:17:25.852Z,7.66
2022-12-25T03:20:11.993Z,7.63
2022-12-25T03:23:01.170Z,7.62
2022-12-25T03:25:48.474Z,7.66
2022-12-25T03:28:15.799Z,7.68
2022-12-25T03:31:18.739Z,7.63
2022-12-25T03:34:11.785Z,7.77
2022-12-25T03:37:15.863Z,7.58
2022-12-25T03:39:55.743Z,7.67
2022-12-25T03:42:50.278Z,7.70
2022-12-25T03:45:53.883Z,7.69
2022-12-25T03:48:42.883Z,7.59
2022-12-25T03:51:33.639Z,7.62
2022-12-25T03:54:24.054Z,7.61
2022-12-25T03:57:10.737Z,7.63
2022-12-25T03:59:56.679Z,7.66
2022-12-25T04:02:42.748Z,7.63
2022-12-25T04:05:28.772Z,7.63
2022-12-25T04:08:14.859Z,7.63
2022-12-25T04:11:00.522Z,7.65
2022-12-25T04:13:46.492Z,7.66
2022-12-25T04:16:32.426Z,7.67
2022-12-25T04:19:31.970Z,7.68
2022-12-25T04:22:18.017Z,7.73
2022-12-25T04:25:03.981Z,7.75
2022-12-25T04:27:49.997Z,7.84
2022-12-25T04:30:36.922Z,7.79
2022-12-25T04:33:22.765Z,7.66
2022-12-25T04:36:09.325Z,7.85
2022-12-25T04:38:38.234Z,7.91
2022-12-25T04:41:06.655Z,7.88
2022-12-25T04:43:33.854Z,7.86
2022-12-25T04:46:04.880Z,7.82
2022-12-25T04:48:34.780Z,7.71
2022-12-25T04:51:20.895Z,7.85
2022-12-25T04:53:49.694Z,7.85
2022-12-25T04:56:17.382Z,7.82
2022-12-25T04:58:45.229Z,7.63
2022-12-25T05:01:13.686Z,7.78
2022-12-25T05:03:41.733Z,7.84
2022-12-25T05:06:10.915Z,7.83
2022-12-25T05:08:38.042Z,7.83
2022-12-25T05:11:10.473Z,7.68
2022-12-25T05:13:38.956Z,7.82
2022-12-25T05:16:12.957Z,7.74
2022-12-25T05:18:40.567Z,7.75
2022-12-25T05:21:08.309Z,7.73
2022-12-25T05:23:36.075Z,7.68
2022-12-25T05:26:07.487Z,7.63
2022-12-25T05:28:36.889Z,7.49
2022-12-25T05:31:04.523Z,7.57
2022-12-25T05:33:32.371Z,7.57
2022-12-25T05:36:04.414Z,7.57
2022-12-25T05:38:32.296Z,7.50
2022-12-25T05:40:59.765Z,7.43
2022-12-25T05:43:28.352Z,7.40
2022-12-25T05:46:07.970Z,7.39
2022-12-25T05:48:38.512Z,7.33
2022-12-25T05:51:14.443Z,7.34
2022-12-25T05:53:43.508Z,7.37
2022-12-25T05:56:11.525Z,7.34
2022-12-25T05:58:40.065Z,7.29
2022-12-25T06:01:15.716Z,7.18
2022-12-25T06:03:43.164Z,7.21
2022-12-25T06:06:11.210Z,7.24
2022-12-25T06:08:38.682Z,7.17
2022-12-25T06:11:07.632Z,7.23
2022-12-25T06:13:36.010Z,7.09
2022-12-25T06:16:08.531Z,7.20
2022-12-25T06:18:42.441Z,7.13
2022-12-25T06:21:11.573Z,7.18
2022-12-25T06:23:39.786Z,7.18
2022-12-25T06:26:09.616Z,7.07
2022-12-25T06:28:37.604Z,7.11
2022-12-25T06:31:18.222Z,7.06
2022-12-25T06:33:46.105Z,6.99
2022-12-25T06:36:17.074Z,7.00
2022-12-25T06:38:44.354Z,7.01
2022-12-25T06:41:17.372Z,6.91
2022-12-25T06:43:48.947Z,7.00
2022-12-25T06:46:16.703Z,6.98
2022-12-25T06:48:51.060Z,6.92
2022-12-25T06:51:30.514Z,6.99
2022-12-25T06:53:58.902Z,6.96
2022-12-25T06:56:29.532Z,6.96
2022-12-25T06:59:02.665Z,6.97
2022-12-25T07:01:33.539Z,7.00
2022-12-25T07:04:04.703Z,6.81
2022-12-25T07:09:35.081Z,6.96
2022-12-25T07:12:21.049Z,6.86
2022-12-25T07:14:51.313Z,7.07
2022-12-25T07:17:21.492Z,7.07
2022-12-25T07:19:50.230Z,7.11
2022-12-25T07:22:18.556Z,7.10
2022-12-25T07:24:47.295Z,7.04
2022-12-25T07:27:19.554Z,7.05
2022-12-25T07:29:48.067Z,7.07
2022-12-25T07:32:49.872Z,7.08
2022-12-25T07:35:18.881Z,7.08
2022-12-25T07:37:47.357Z,7.16
2022-12-25T07:40:15.991Z,7.16
2022-12-25T07:42:45.411Z,7.15
2022-12-25T07:45:13.218Z,7.19
2022-12-25T07:47:40.949Z,7.20
2022-12-25T07:50:08.664Z,7.20
2022-12-25T07:52:43.092Z,7.23
2022-12-25T07:55:12.035Z,7.30
2022-12-25T07:57:40.931Z,7.30
2022-12-25T08:00:10.043Z,7.29
2022-12-25T08:02:40.839Z,7.27
2022-12-25T08:05:08.930Z,7.24
2022-12-25T08:07:36.508Z,7.30
2022-12-25T08:10:04.444Z,7.34
2022-12-25T08:12:31.788Z,7.37
2022-12-25T08:14:59.138Z,7.44
2022-12-25T08:17:26.518Z,7.45
2022-12-25T08:19:53.869Z,7.44
2022-12-25T08:22:21.141Z,7.32
2022-12-25T08:24:48.642Z,7.47
2022-12-25T08:27:16.035Z,7.50
2022-12-25T08:29:45.090Z,7.42
2022-12-25T08:32:12.384Z,7.50
2022-12-25T08:34:40.083Z,7.54
2022-12-25T08:37:07.402Z,7.59
2022-12-25T08:39:34.539Z,7.61
2022-12-25T08:42:08.225Z,7.64
2022-12-25T08:44:35.672Z,7.81
2022-12-25T08:47:03.017Z,7.74
2022-12-25T08:49:30.367Z,7.77
2022-12-25T08:51:58.045Z,7.87
2022-12-25T08:54:25.528Z,7.93
2022-12-25T08:56:57.277Z,7.97
2022-12-25T08:59:29.489Z,8.07
2022-12-25T09:01:56.823Z,8.17
2022-12-25T09:04:26.739Z,8.22
2022-12-25T09:06:54.063Z,8.28
2022-12-25T09:09:21.523Z,8.29
2022-12-25T09:11:49.522Z,8.40
2022-12-25T09:14:16.706Z,8.43
2022-12-25T09:16:44.281Z,8.53
2022-12-25T09:19:12.062Z,8.57
2022-12-25T09:21:39.282Z,8.58
2022-12-25T09:24:06.857Z,8.62
2022-12-25T09:26:34.272Z,8.77
2022-12-25T09:29:01.544Z,8.92
2022-12-25T09:31:29.266Z,9.01
2022-12-25T09:33:58.397Z,8.80
2022-12-25T09:36:26.177Z,9.06
2022-12-25T09:38:54.123Z,9.22
2022-12-25T09:41:46.285Z,9.28
2022-12-25T09:44:24.312Z,9.40
2022-12-25T09:46:56.313Z,9.42
2022-12-25T09:49:32.062Z,9.54
2022-12-25T09:52:06.299Z,9.64
2022-12-25T09:55:00.799Z,9.86
2022-12-25T09:57:28.394Z,10.08
2022-12-25T09:59:56.426Z,10.20
2022-12-25T10:02:36.741Z,10.34
2022-12-25T10:05:29.583Z,10.40
2022-12-25T10:08:25.357Z,10.56
2022-12-25T10:11:11.902Z,10.63
2022-12-25T10:13:42.355Z,10.71
2022-12-25T10:16:34.649Z,10.83
2022-12-25T10:19:11.802Z,10.93
2022-12-25T10:21:39.508Z,11.02
2022-12-25T10:24:32.585Z,11.16
2022-12-25T10:27:05.500Z,11.15
2022-12-25T10:29:35.177Z,11.21
2022-12-25T10:32:02.834Z,11.30
2022-12-25T10:34:30.723Z,11.36
2022-12-25T10:36:59.798Z,11.57
2022-12-25T10:39:27.220Z,11.59
2022-12-25T10:42:06.353Z,11.66
2022-12-25T10:44:39.355Z,11.74
2022-12-25T10:47:09.022Z,11.66
2022-12-25T10:49:39.867Z,11.76
2022-12-25T10:52:23.280Z,11.82
2022-12-25T10:54:50.720Z,11.95
2022-12-25T10:57:25.543Z,11.94
2022-12-25T10:59:57.060Z,11.91
2022-12-25T11:02:31.053Z,12.04
2022-12-25T11:05:08.104Z,12.13
2022-12-25T11:07:51.781Z,12.18
2022-12-25T11:10:39.471Z,12.26
2022-12-25T11:13:30.924Z,12.37
2022-12-25T11:16:03.165Z,12.53
2022-12-25T11:18:45.065Z,12.61
2022-12-25T11:21:23.508Z,12.69
2022-12-25T11:24:18.303Z,12.81
2022-12-25T11:26:55.711Z,12.97
2022-12-25T11:29:25.399Z,12.95
2022-12-25T11:31:56.235Z,13.19
2022-12-25T11:34:38.713Z,13.17
2022-12-25T11:37:13.523Z,13.30
2022-12-25T11:39:42.278Z,13.46
2022-12-25T11:42:50.345Z,13.42
2022-12-25T11:45:21.248Z,13.38
2022-12-25T11:48:00.532Z,13.35
2022-12-25T11:50:32.804Z,13.33
2022-12-25T11:53:07.382Z,13.36
2022-12-25T11:55:43.126Z,13.43
2022-12-25T11:58:36.855Z,13.44
2022-12-25T12:01:16.032Z,13.49
2022-12-25T12:03:44.895Z,13.48
2022-12-25T12:06:26.160Z,13.42
2022-12-25T12:09:03.244Z,13.49
2022-12-25T12:11:48.268Z,13.62
2022-12-25T12:14:35.556Z,13.67
2022-12-25T12:17:13.377Z,13.70
2022-12-25T12:19:42.846Z,13.71
2022-12-25T12:22:23.966Z,13.72
2022-12-25T12:24:59.072Z,13.77
2022-12-25T12:27:39.669Z,13.76
2022-12-25T12:30:21.869Z,13.84
2022-12-25T12:32:53.798Z,13.80
2022-12-25T12:35:27.226Z,13.84
2022-12-25T12:38:01.176Z,13.70
2022-12-25T12:40:50.565Z,13.81
2022-12-25T12:43:39.471Z,13.82
2022-12-25T12:46:36.400Z,13.80
2022-12-25T12:49:11.220Z,13.68
2022-12-25T12:51:39.267Z,13.91
2022-12-25T12:54:21.258Z,13.89
2022-12-25T12:57:06.365Z,13.96
2022-12-25T12:59:46.480Z,13.91
2022-12-25T13:02:51.218Z,13.94
2022-12-25T13:05:50.892Z,13.93
2022-12-25T13:08:55.669Z,13.92
2022-12-25T13:11:31.981Z,13.99
2022-12-25T13:14:02.956Z,13.97
2022-12-25T13:16:38.024Z,14.02
2022-12-25T13:19:08.547Z,14.17
2022-12-25T13:21:36.525Z,14.16
2022-12-25T13:24:10.877Z,14.28
2022-12-25T13:26:39.952Z,14.18
2022-12-25T13:29:11.447Z,14.17
2022-12-25T13:31:41.146Z,14.21
2022-12-25T13:34:17.668Z,14.17
2022-12-25T13:36:44.965Z,14.12
2022-12-25T13:39:17.260Z,14.09
2022-12-25T13:42:05.864Z,14.12
2022-12-25T13:44:53.193Z,14.18
2022-12-25T13:47:32.951Z,14.24
2022-12-25T13:50:13.620Z,14.25
2022-12-25T13:52:41.088Z,14.21
2022-12-25T13:55:19.382Z,14.14
2022-12-25T13:57:48.312Z,14.27
2022-12-25T14:00:30.508Z,14.26
2022-12-25T14:02:59.292Z,14.33
2022-12-25T14:05:39.773Z,14.35
2022-12-25T14:08:21.093Z,14.35
2022-12-25T14:10:51.450Z,14.28
2022-12-25T14:13:21.428Z,14.31
2022-12-25T14:15:49.969Z,14.26
2022-12-25T14:18:19.232Z,14.20
2022-12-25T14:21:02.695Z,14.24
2022-12-25T14:23:50.043Z,14.34
2022-12-25T14:26:19.820Z,14.39
2022-12-25T14:28:53.950Z,14.23
2022-12-25T14:31:22.284Z,14.34
2022-12-25T14:33:51.883Z,14.39
2022-12-25T14:36:19.690Z,14.25
2022-12-25T14:38:57.565Z,14.30
2022-12-25T14:41:38.471Z,14.35
2022-12-25T14:44:30.612Z,14.33
2022-12-25T14:47:18.939Z,14.36
2022-12-25T14:49:48.017Z,14.30
2022-12-25T14:52:30.666Z,14.19
2022-12-25T14:55:05.661Z,14.26
2022-12-25T14:57:38.085Z,14.22
2022-12-25T15:00:12.951Z,14.19
2022-12-25T15:02:46.224Z,14.06
2022-12-25T15:05:30.308Z,14.09
2022-12-25T15:08:09.498Z,14.10
2022-12-25T15:13:26.858Z,13.99
2022-12-25T15:16:09.325Z,14.00
2022-12-25T15:18:45.604Z,13.96
2022-12-25T15:21:19.389Z,13.97
2022-12-25T15:23:47.146Z,13.92
2022-12-25T15:26:15.568Z,13.90
2022-12-25T15:28:43.421Z,13.89
2022-12-25T15:31:39.356Z,13.87
2022-12-25T15:34:20.806Z,13.85
2022-12-25T15:36:54.505Z,13.83
2022-12-25T15:39:22.233Z,13.78
2022-12-25T15:42:08.828Z,13.75
2022-12-25T15:44:36.291Z,13.73
2022-12-25T15:47:04.004Z,13.69
2022-12-25T15:49:31.405Z,13.61
2022-12-25T15:51:58.927Z,13.53
2022-12-25T15:54:26.197Z,13.52
2022-12-25T15:56:56.621Z,13.52
2022-12-25T15:59:24.474Z,13.42
2022-12-25T16:01:57.350Z,13.40
2022-12-25T16:04:26.209Z,13.34
2022-12-25T16:06:54.988Z,13.32
2022-12-25T16:09:22.918Z,13.14
2022-12-25T16:11:54.203Z,13.20
2022-12-25T16:14:22.733Z,13.16
2022-12-25T16:16:50.332Z,13.11
2022-12-25T16:19:17.812Z,13.08
2022-12-25T16:21:47.003Z,13.00
2022-12-25T16:24:15.603Z,12.96
2022-12-25T16:26:43.668Z,12.91
2022-12-25T16:29:17.396Z,12.85
2022-12-25T16:31:45.365Z,12.83
2022-12-25T16:34:13.886Z,12.79
2022-12-25T16:36:41.679Z,12.71
2022-12-25T16:39:09.249Z,12.67
2022-12-25T16:41:36.683Z,12.65
2022-12-25T16:44:16.345Z,12.50
2022-12-25T16:46:44.187Z,12.56
2022-12-25T16:49:15.468Z,12.51
2022-12-25T16:51:43.151Z,12.55
2022-12-25T16:54:10.562Z,12.51
2022-12-25T16:56:38.650Z,12.49
2022-12-25T16:59:06.031Z,12.40
2022-12-25T17:01:33.791Z,12.37
2022-12-25T17:04:02.016Z,12.31
2022-12-25T17:06:29.651Z,12.24
2022-12-25T17:09:00.535Z,12.25
2022-12-25T17:11:32.464Z,11.98
2022-12-25T17:14:02.832Z,12.18
2022-12-25T17:16:36.088Z,12.13
2022-12-25T17:19:10.147Z,12.12
2022-12-25T17:21:38.777Z,12.01
2022-12-25T17:24:07.398Z,12.11
2022-12-25T17:26:36.013Z,12.07
2022-12-25T17:29:04.481Z,12.01
2022-12-25T17:31:32.501Z,12.00
2022-12-25T17:34:02.799Z,11.94
2022-12-25T17:36:32.170Z,11.95
2022-12-25T17:39:01.342Z,11.92
2022-12-25T17:41:30.062Z,11.81
2022-12-25T17:44:00.557Z,11.58
2022-12-25T17:46:30.674Z,11.85
2022-12-25T17:49:00.771Z,11.85
2022-12-25T17:51:32.043Z,11.78
2022-12-25T17:54:05.116Z,11.77
2022-12-25T17:56:32.847Z,11.75
2022-12-25T17:59:07.056Z,11.75
2022-12-25T18:01:37.071Z,11.75
2022-12-25T18:04:06.557Z,11.71
2022-12-25T18:06:35.752Z,11.68
2022-12-25T18:09:05.734Z,11.44
2022-12-25T18:11:33.423Z,11.64
2022-12-25T18:14:05.797Z,11.59
2022-12-25T18:16:35.704Z,11.54
2022-12-25T18:19:04.405Z,11.52
2022-12-25T18:21:32.001Z,11.51
2022-12-25T18:23:59.707Z,11.52
2022-12-25T18:26:29.079Z,11.49
2022-12-25T18:28:56.614Z,11.45
2022-12-25T18:31:26.537Z,11.50
2022-12-25T18:33:54.379Z,11.49
2022-12-25T18:36:25.590Z,11.49
2022-12-25T18:38:56.705Z,11.45
2022-12-25T18:41:24.139Z,11.45
2022-12-25T18:43:55.649Z,11.40
2022-12-25T18:46:25.664Z,11.36
2022-12-25T18:48:57.759Z,11.34
2022-12-25T18:51:29.923Z,11.33
2022-12-25T18:54:02.942Z,11.27
2022-12-25T18:56:31.931Z,11.26
2022-12-25T18:59:01.414Z,11.23
2022-12-25T19:01:32.612Z,11.18
2022-12-25T19:04:05.438Z,11.20
2022-12-25T19:06:35.816Z,11.23
2022-12-25T19:09:10.284Z,11.23
2022-12-25T19:11:46.511Z,11.09
2022-12-25T19:14:14.886Z,11.21
2022-12-25T19:16:42.392Z,11.23
2022-12-25T19:19:09.740Z,11.22
2022-12-25T19:21:38.085Z,11.19
2022-12-25T19:24:05.714Z,11.20
2022-12-25T19:26:33.079Z,11.21
2022-12-25T19:29:00.973Z,11.12
2022-12-25T19:31:29.062Z,11.10
2022-12-25T19:33:56.334Z,11.09
2022-12-25T19:36:23.788Z,10.94
2022-12-25T19:38:50.986Z,11.07
2022-12-25T19:41:19.621Z,11.08
2022-12-25T19:43:48.838Z,11.09
2022-12-25T19:46:26.224Z,10.87
2022-12-25T19:48:55.643Z,10.91
2022-12-25T19:51:29.178Z,10.85
2022-12-25T19:53:56.960Z,10.80
2022-12-25T19:56:26.182Z,10.74
2022-12-25T19:58:54.029Z,10.75
2022-12-25T20:01:23.134Z,10.57
2022-12-25T20:03:51.159Z,10.70
2022-12-25T20:06:25.428Z,10.71
2022-12-25T20:08:55.675Z,10.68
2022-12-25T20:11:26.306Z,10.53
2022-12-25T20:13:54.850Z,10.69
2022-12-25T20:16:23.310Z,10.62
2022-12-25T20:18:51.151Z,10.65
2022-12-25T20:21:21.310Z,10.58
2022-12-25T20:23:50.899Z,10.63
2022-12-25T20:26:20.093Z,10.69
2022-12-25T20:28:48.518Z,10.61
2022-12-25T20:31:23.438Z,10.56
2022-12-25T20:33:51.248Z,10.51
2022-12-25T20:36:19.513Z,10.50
2022-12-25T20:38:47.859Z,10.51
2022-12-25T20:41:28.761Z,10.49
2022-12-25T20:44:02.566Z,10.46
2022-12-25T20:46:30.651Z,10.33
2022-12-25T20:48:58.109Z,10.37
2022-12-25T20:51:26.882Z,10.34
2022-12-25T20:53:55.587Z,10.23
2022-12-25T20:56:25.508Z,10.29
2022-12-25T20:59:01.867Z,10.12
2022-12-25T21:01:30.837Z,10.28
2022-12-25T21:03:59.947Z,10.27
2022-12-25T21:06:27.629Z,10.20
2022-12-25T21:08:55.696Z,10.23
2022-12-25T21:11:23.096Z,10.23
2022-12-25T21:13:50.597Z,10.25
2022-12-25T21:16:20.860Z,10.11
2022-12-25T21:18:51.027Z,10.24
2022-12-25T21:21:19.391Z,10.27
2022-12-25T21:23:47.012Z,10.25
2022-12-25T21:26:32.242Z,10.34
2022-12-25T21:29:01.329Z,10.26
2022-12-25T21:31:30.373Z,10.28
2022-12-25T21:33:58.414Z,10.28
2022-12-25T21:36:28.040Z,10.31
2022-12-25T21:39:02.127Z,10.27
2022-12-25T21:41:31.843Z,10.23
2022-12-25T21:43:59.947Z,10.23
2022-12-25T21:46:30.323Z,10.22
2022-12-25T21:48:59.403Z,10.16
2022-12-25T21:51:51.227Z,9.90
2022-12-25T21:54:21.207Z,10.19
2022-12-25T21:56:51.099Z,10.17
2022-12-25T21:59:24.022Z,10.17
2022-12-25T22:01:53.676Z,10.19
2022-12-25T22:04:24.385Z,10.17
2022-12-25T22:07:10.999Z,10.23
2022-12-25T22:09:38.589Z,10.18
2022-12-25T22:12:30.133Z,10.16
2022-12-25T22:15:07.000Z,10.18
2022-12-25T22:17:54.200Z,10.26
2022-12-25T22:20:24.835Z,10.16
2022-12-25T22:22:53.359Z,10.13
2022-12-25T22:25:21.543Z,10.08
2022-12-25T22:27:49.804Z,10.02
2022-12-25T22:30:25.147Z,9.99
2022-12-25T22:32:52.628Z,9.96
2022-12-25T22:35:21.256Z,9.97
2022-12-25T22:37:50.013Z,9.91
2022-12-25T22:40:20.155Z,9.90
2022-12-25T22:42:50.340Z,9.85
2022-12-25T22:45:17.908Z,9.85
2022-12-25T22:47:47.468Z,9.89
2022-12-25T22:50:15.510Z,9.85
2022-12-25T22:52:46.179Z,9.80
2022-12-25T22:55:17.450Z,9.82
2022-12-25T22:57:45.102Z,9.80
2022-12-25T23:00:13.964Z,9.79
2022-12-25T23:02:41.499Z,9.80
2022-12-25T23:05:09.300Z,9.74
2022-12-25T23:07:36.935Z,9.81
2022-12-25T23:10:06.095Z,9.79
2022-12-25T23:12:52.005Z,9.75
2022-12-25T23:15:19.342Z,9.73
2022-12-25T23:18:05.063Z,9.69
2022-12-25T23:20:52.108Z,9.68
2022-12-25T23:23:37.661Z,9.69
2022-12-25T23:26:08.417Z,9.65
2022-12-25T23:29:00.047Z,9.66
2022-12-25T23:31:31.637Z,9.62
2022-12-25T23:33:59.886Z,9.62
2022-12-25T23:36:28.245Z,9.61
2022-12-25T23:38:55.911Z,9.63
2022-12-25T23:41:23.641Z,9.60
2022-12-25T23:43:51.484Z,9.58
2022-12-25T23:46:18.788Z,9.58
2022-12-25T23:48:46.263Z,9.45
2022-12-25T23:51:14.006Z,9.58
2022-12-25T23:53:41.296Z,9.57
2022-12-25T23:56:10.718Z,9.52
2022-12-25T23:58:38.361Z,9.54
